Time;durP1;ratioP1;P1;durP2;ratioP2;P2;SDS_P1;SDS_P2;PMS_P1;PMS_P2;Temp;Humidity;BMP_temperature;BMP_pressure;BME280_temperature;BME280_humidity;BME280_pressure;Samples;Min_cycle;Max_cycle;Signal;HPM_P1;HPM_P2
2022/12/24 00:02:19;;;;;;;;;;;;;;;1.74;80.15;99679.88;5034631;28;19932;-96
2022/12/24 00:04:47;;;;;;;;;;;;;;;1.76;79.82;99674.69;5034178;28;19914;-96
2022/12/24 00:07:12;;;;;;;;;;;;;;;1.97;78.65;99685.53;5033740;28;20375;-96
2022/12/24 00:12:41;;;;;;;;;;;;;;;1.91;79.17;99692.34;5041300;28;19915;-96
2022/12/24 00:15:08;;;;;;;;;;;;;;;1.82;79.24;99695.63;5040029;28;19925;-96
2022/12/24 00:17:37;;;;;;;;;;;;;;;1.59;79.51;99689.97;5041109;28;19913;-96
2022/12/24 00:20:03;;;;;;;;;;;;;;;1.32;80.70;99701.53;5034804;28;20020;-96
2022/12/24 00:22:30;;;;;;;;;;;;;;;1.46;80.36;99699.22;5040314;28;19952;-96
2022/12/24 00:24:56;;;;;;;;;;;;;;;1.23;81.81;99698.72;5034300;28;20478;-96
2022/12/24 00:27:21;;;;;;;;;;;;;;;1.45;81.89;99692.25;5016940;28;20008;-95
2022/12/24 00:29:46;;;;;;;;;;;;;;;1.36;82.02;99686.88;5032667;28;19967;-95
2022/12/24 00:32:11;;;;;;;;;;;;;;;1.31;82.44;99688.50;5032786;28;20319;-95
2022/12/24 00:34:37;;;;;;;;;;;;;;;1.59;81.69;99689.97;5032767;28;19917;-95
2022/12/24 00:37:02;;;;;;;;;;;;;;;1.68;81.07;99691.88;5032586;28;19913;-95
2022/12/24 00:39:28;;;;;;;;;;;;;;;1.63;80.87;99694.38;5035407;28;19913;-96
2022/12/24 00:41:53;;;;;;;;;;;;;;;1.45;81.68;99697.47;5034288;28;19935;-96
2022/12/24 00:44:21;;;;;;;;;;;;;;;1.33;82.19;99705.00;5033457;28;19913;-96
2022/12/24 00:46:47;;;;;;;;;;;;;;;1.17;83.52;99698.56;5033631;28;19948;-96
2022/12/24 00:52:16;;;;;;;;;;;;;;;1.33;82.97;99692.00;5034178;28;19916;-96
2022/12/24 00:54:44;;;;;;;;;;;;;;;1.30;83.34;99698.03;5039234;28;19913;-96
2022/12/24 00:57:10;;;;;;;;;;;;;;;1.52;83.13;99694.16;5033603;28;20364;-95
2022/12/24 00:59:36;;;;;;;;;;;;;;;1.53;82.06;99689.81;5033555;28;20004;-94
2022/12/24 01:02:01;;;;;;;;;;;;;;;1.50;81.44;99681.97;5019952;28;19952;-94
2022/12/24 01:07:10;;;;;;;;;;;;;;;1.59;80.49;99695.16;5033840;28;20050;-96
2022/12/24 01:09:36;;;;;;;;;;;;;;;1.65;79.64;99689.22;5034446;28;19913;-95
2022/12/24 01:12:01;;;;;;;;;;;;;;;1.59;80.35;99685.66;5031841;28;20294;-95
2022/12/24 01:17:31;;;;;;;;;;;;;;;1.57;79.75;99682.13;5023798;28;19948;-91
2022/12/24 01:19:56;;;;;;;;;;;;;;;1.50;79.43;99680.25;4995730;28;19913;-96
2022/12/24 01:22:23;;;;;;;;;;;;;;;1.64;79.18;99677.06;4995396;28;20363;-96
2022/12/24 01:24:48;;;;;;;;;;;;;;;1.60;79.09;99665.72;4995495;28;19917;-95
2022/12/24 01:27:13;;;;;;;;;;;;;;;1.66;78.43;99657.19;4995522;28;19936;-95
2022/12/24 01:29:39;;;;;;;;;;;;;;;1.72;78.53;99655.56;4998864;28;19913;-96
2022/12/24 01:32:04;;;;;;;;;;;;;;;1.70;78.60;99657.28;4979477;28;19924;-95
2022/12/24 01:34:30;;;;;;;;;;;;;;;1.70;77.51;99658.97;4994742;28;19913;-95
2022/12/24 01:36:55;;;;;;;;;;;;;;;1.54;77.54;99665.59;5011073;28;19917;-95
2022/12/24 01:39:20;;;;;;;;;;;;;;;1.50;78.17;99654.25;4994425;28;19913;-94
2022/12/24 01:44:41;;;;;;;;;;;;;;;1.55;78.20;99654.34;4959547;28;19921;-94
2022/12/24 01:47:10;;;;;;;;;;;;;;;1.45;78.00;99657.59;5013059;28;19921;-94
2022/12/24 01:52:38;;;;;;;;;;;;;;;1.59;78.09;99658.75;5033815;28;19935;-95
2022/12/24 01:55:09;;;;;;;;;;;;;;;1.56;77.50;99661.28;5034986;28;19913;-96
2022/12/24 01:57:47;;;;;;;;;;;;;;;1.64;77.64;99664.06;5037887;28;19924;-96
2022/12/24 02:03:15;;;;;;;;;;;;;;;1.32;77.92;99666.88;5036395;28;19948;-96
2022/12/24 02:05:51;;;;;;;;;;;;;;;1.50;77.34;99653.38;5033753;28;19917;-94
2022/12/24 02:08:18;;;;;;;;;;;;;;;1.54;77.46;99658.66;5034021;28;19913;-94
2022/12/24 02:10:44;;;;;;;;;;;;;;;1.54;77.48;99656.06;5028079;28;19916;-95
2022/12/24 02:13:09;;;;;;;;;;;;;;;1.56;76.72;99654.38;5032407;28;19913;-95
2022/12/24 02:16:01;;;;;;;;;;;;;;;1.51;76.61;99648.19;5031682;28;19957;-96
2022/12/24 02:18:26;;;;;;;;;;;;;;;1.51;76.44;99650.78;5029302;28;19909;-96
2022/12/24 02:21:14;;;;;;;;;;;;;;;1.34;78.00;99659.97;5034025;28;20011;-96
2022/12/24 02:24:01;;;;;;;;;;;;;;;1.27;77.83;99647.66;5027536;28;19909;-96
2022/12/24 02:26:33;;;;;;;;;;;;;;;1.38;78.12;99651.41;5036002;28;19948;-95
2022/12/24 02:29:10;;;;;;;;;;;;;;;1.37;77.20;99654.84;5036070;28;19925;-95
2022/12/24 02:31:40;;;;;;;;;;;;;;;1.40;77.85;99654.91;5039833;28;19913;-96
2022/12/24 02:34:38;;;;;;;;;;;;;;;1.46;77.08;99659.38;5034626;28;19919;-96
2022/12/24 02:37:29;;;;;;;;;;;;;;;1.55;76.24;99654.34;5015474;28;19919;-96
2022/12/24 02:40:02;;;;;;;;;;;;;;;1.32;76.39;99656.47;5040110;28;19960;-94
2022/12/24 02:42:33;;;;;;;;;;;;;;;1.16;76.72;99660.44;5039587;28;20290;-96
2022/12/24 02:45:21;;;;;;;;;;;;;;;0.89;77.69;99670.22;5042311;28;19913;-96
2022/12/24 02:47:47;;;;;;;;;;;;;;;0.91;78.51;99670.25;5039332;28;20300;-96
2022/12/24 02:53:15;;;;;;;;;;;;;;;1.01;78.23;99664.44;5039593;28;19916;-96
2022/12/24 02:55:49;;;;;;;;;;;;;;;1.20;77.89;99670.94;5036812;28;19913;-96
2022/12/24 02:58:34;;;;;;;;;;;;;;;1.17;77.39;99670.84;5036406;28;19917;-96
2022/12/24 03:01:16;;;;;;;;;;;;;;;1.11;77.46;99675.06;5035790;28;19913;-96
2022/12/24 03:04:01;;;;;;;;;;;;;;;1.02;77.50;99676.59;5053497;28;19949;-96
2022/12/24 03:06:57;;;;;;;;;;;;;;;1.07;78.05;99676.72;5055400;28;19968;-96
2022/12/24 03:12:32;;;;;;;;;;;;;;;1.10;77.49;99666.38;5051294;28;20348;-96
2022/12/24 03:15:08;;;;;;;;;;;;;;;1.22;76.95;99678.75;5036161;28;19913;-95
2022/12/24 03:17:36;;;;;;;;;;;;;;;1.22;76.73;99674.47;5043402;28;19921;-95
2022/12/24 03:20:02;;;;;;;;;;;;;;;1.24;76.86;99672.75;5034731;28;19913;-95
2022/12/24 03:22:30;;;;;;;;;;;;;;;1.06;77.25;99664.56;5034479;28;19917;-95
2022/12/24 03:24:55;;;;;;;;;;;;;;;0.94;77.67;99667.72;5034144;28;20004;-95
2022/12/24 03:27:21;;;;;;;;;;;;;;;0.83;79.05;99654.50;5034221;28;19944;-96
2022/12/24 03:29:46;;;;;;;;;;;;;;;0.95;78.39;99658.25;5034199;28;19913;-96
2022/12/24 03:32:12;;;;;;;;;;;;;;;0.97;78.29;99647.03;5034777;28;19913;-95
2022/12/24 03:34:38;;;;;;;;;;;;;;;1.02;77.87;99653.22;5033916;28;20338;-96
2022/12/24 03:37:10;;;;;;;;;;;;;;;1.12;77.26;99653.44;5041269;28;19957;-96
2022/12/24 03:39:36;;;;;;;;;;;;;;;1.20;76.90;99649.28;5038085;28;20003;-96
2022/12/24 03:42:01;;;;;;;;;;;;;;;1.24;76.76;99651.09;5040313;28;19944;-96
2022/12/24 03:44:32;;;;;;;;;;;;;;;1.23;76.29;99642.41;5046970;28;19920;-96
2022/12/24 03:49:43;;;;;;;;;;;;;;;0.88;76.27;99642.50;5055531;28;19925;-96
2022/12/24 03:52:19;;;;;;;;;;;;;;;0.80;76.90;99638.84;5046693;28;19913;-96
2022/12/24 03:54:46;;;;;;;;;;;;;;;0.89;77.10;99641.66;5096941;22;19922;-96
2022/12/24 03:57:12;;;;;;;;;;;;;;;0.42;78.39;99646.59;5081616;22;19932;-96
2022/12/24 03:59:57;;;;;;;;;;;;;;;0.64;78.30;99641.94;5140692;22;19905;-94
2022/12/24 04:05:39;;;;;;;;;;;;;;;0.83;78.66;99640.66;5483389;22;19929;-96
2022/12/24 04:08:07;;;;;;;;;;;;;;;0.90;79.11;99645.16;5042582;28;19974;-94
2022/12/24 04:10:33;;;;;;;;;;;;;;;1.05;78.70;99652.41;5033386;28;19917;-92
2022/12/24 04:13:00;;;;;;;;;;;;;;;1.03;77.78;99652.34;5035317;28;19920;-94
2022/12/24 04:18:28;;;;;;;;;;;;;;;0.80;77.43;99658.75;5035839;28;19920;-94
2022/12/24 04:20:53;;;;;;;;;;;;;;;0.66;77.91;99658.41;5036173;28;19909;-94
2022/12/24 04:23:21;;;;;;;;;;;;;;;0.71;77.62;99655.09;5034600;28;19913;-94
2022/12/24 04:25:47;;;;;;;;;;;;;;;0.73;77.66;99655.13;5035190;28;19987;-96
2022/12/24 04:28:12;;;;;;;;;;;;;;;0.87;77.61;99656.34;5033062;28;20380;-93
2022/12/24 04:30:38;;;;;;;;;;;;;;;0.86;77.44;99641.59;5039921;28;19913;-96
2022/12/24 04:33:03;;;;;;;;;;;;;;;0.91;77.30;99651.22;5035433;28;20282;-95
2022/12/24 04:35:30;;;;;;;;;;;;;;;0.83;76.63;99651.03;5032986;28;19913;-95
2022/12/24 04:37:56;;;;;;;;;;;;;;;0.80;76.74;99653.56;5033234;28;19917;-95
2022/12/24 04:40:22;;;;;;;;;;;;;;;0.71;76.15;99651.59;5033966;28;19913;-94
2022/12/24 04:42:49;;;;;;;;;;;;;;;0.65;76.45;99652.34;5033057;28;19921;-94
2022/12/24 04:45:14;;;;;;;;;;;;;;;0.64;76.58;99658.38;5034350;28;19971;-95
2022/12/24 04:47:40;;;;;;;;;;;;;;;0.75;76.46;99666.44;5032686;28;20379;-95
2022/12/24 04:50:05;;;;;;;;;;;;;;;0.49;77.34;99665.78;5033391;28;19913;-96
2022/12/24 04:52:32;;;;;;;;;;;;;;;0.70;76.51;99660.25;5032546;28;19917;-95
2022/12/24 04:54:59;;;;;;;;;;;;;;;0.73;76.57;99655.13;5033200;28;20012;-96
2022/12/24 04:57:24;;;;;;;;;;;;;;;0.69;76.20;99666.28;5016658;28;19925;-95
2022/12/24 04:59:52;;;;;;;;;;;;;;;0.40;76.81;99669.03;5033105;28;19921;-95
2022/12/24 05:02:17;;;;;;;;;;;;;;;0.47;76.63;99670.94;5032995;28;20367;-95
2022/12/24 05:04:42;;;;;;;;;;;;;;;0.26;78.30;99667.81;5016319;28;19924;-96
2022/12/24 05:07:09;;;;;;;;;;;;;;;0.12;80.37;99665.72;5031883;28;19917;-96
2022/12/24 05:12:38;;;;;;;;;;;;;;;-0.27;81.47;99670.72;5034056;28;19966;-95
2022/12/24 05:15:04;;;;;;;;;;;;;;;-0.01;81.31;99674.03;5033689;28;19960;-94
2022/12/24 05:17:30;;;;;;;;;;;;;;;0.25;80.55;99668.63;5032218;28;19979;-95
2022/12/24 05:19:55;;;;;;;;;;;;;;;0.50;79.74;99664.97;5032991;28;20286;-96
2022/12/24 05:27:51;;;;;;;;;;;;;;;0.58;79.48;99668.63;5034257;28;19920;-95
2022/12/24 05:30:17;;;;;;;;;;;;;;;0.74;78.22;99669.84;5037687;28;19936;-95
2022/12/24 05:32:42;;;;;;;;;;;;;;;0.44;77.97;99677.78;5034408;28;19913;-94
2022/12/24 05:35:08;;;;;;;;;;;;;;;0.35;78.44;99668.03;5032263;28;19913;-95
2022/12/24 05:37:34;;;;;;;;;;;;;;;0.42;78.54;99662.19;5015709;28;19917;-95
2022/12/24 05:40:00;;;;;;;;;;;;;;;0.64;77.94;99666.16;5031971;28;19913;-95
2022/12/24 05:42:26;;;;;;;;;;;;;;;0.51;78.45;99659.81;5035188;28;20000;-94
2022/12/24 05:44:52;;;;;;;;;;;;;;;0.63;79.08;99667.00;5032584;28;20349;-95
2022/12/24 05:47:17;;;;;;;;;;;;;;;0.65;78.90;99672.22;5033490;28;19917;-95
2022/12/24 05:49:44;;;;;;;;;;;;;;;0.59;79.58;99669.47;5032322;28;19913;-96
2022/12/24 05:52:09;;;;;;;;;;;;;;;0.56;79.96;99678.09;5033581;28;19909;-95
2022/12/24 05:54:35;;;;;;;;;;;;;;;0.74;79.48;99676.78;5031635;28;19920;-95
2022/12/24 05:57:01;;;;;;;;;;;;;;;0.68;80.27;99678.41;5031831;28;20295;-96
2022/12/24 05:59:29;;;;;;;;;;;;;;;0.69;79.95;99687.06;5036863;28;19909;-96
2022/12/24 06:01:54;;;;;;;;;;;;;;;0.61;80.05;99684.28;5036124;28;19913;-95
2022/12/24 06:04:20;;;;;;;;;;;;;;;0.72;79.77;99692.31;5035003;28;19940;-92
2022/12/24 06:06:45;;;;;;;;;;;;;;;0.84;79.48;99696.94;5035997;28;19924;-92
2022/12/24 06:09:11;;;;;;;;;;;;;;;0.75;79.05;99697.59;5036203;28;19921;-91
2022/12/24 06:11:36;;;;;;;;;;;;;;;0.86;79.23;99700.44;5034613;28;19963;-90
2022/12/24 06:14:01;;;;;;;;;;;;;;;0.98;78.91;99703.34;5036012;28;20319;-91
2022/12/24 06:16:27;;;;;;;;;;;;;;;0.96;79.25;99698.94;5034820;28;19913;-92
2022/12/24 06:18:53;;;;;;;;;;;;;;;1.01;78.72;99705.16;5034843;28;20286;-90
2022/12/24 06:21:18;;;;;;;;;;;;;;;0.96;78.00;99704.13;5035641;28;20422;-89
2022/12/24 06:23:44;;;;;;;;;;;;;;;1.07;77.80;99710.50;5036035;28;20375;-89
2022/12/24 06:26:13;;;;;;;;;;;;;;;1.01;78.16;99718.13;5034578;28;20367;-89
2022/12/24 06:28:39;;;;;;;;;;;;;;;1.04;78.33;99721.69;5035689;28;19913;-94
2022/12/24 06:34:08;;;;;;;;;;;;;;;1.21;78.38;99716.00;5036878;28;20004;-94
2022/12/24 06:36:34;;;;;;;;;;;;;;;1.30;78.70;99710.13;5019303;28;19925;-95
2022/12/24 06:39:00;;;;;;;;;;;;;;;1.36;78.40;99711.16;5035594;28;19983;-95
2022/12/24 06:41:25;;;;;;;;;;;;;;;1.51;78.50;99713.19;5035064;28;19913;-95
2022/12/24 06:43:51;;;;;;;;;;;;;;;1.61;78.76;99711.69;5035291;28;20276;-95
2022/12/24 06:46:17;;;;;;;;;;;;;;;1.43;78.60;99719.97;5034898;28;19920;-93
2022/12/24 06:48:44;;;;;;;;;;;;;;;1.54;79.91;99717.59;5036261;28;19917;-93
2022/12/24 06:51:09;;;;;;;;;;;;;;;1.37;80.65;99706.81;5035317;28;19913;-94
2022/12/24 06:53:35;;;;;;;;;;;;;;;1.65;80.67;99699.63;5018686;28;20401;-94
2022/12/24 06:56:01;;;;;;;;;;;;;;;1.47;80.70;99718.28;5034274;28;20453;-89
2022/12/24 06:58:27;;;;;;;;;;;;;;;1.85;82.08;99711.31;5035120;28;19936;-91
2022/12/24 07:00:52;;;;;;;;;;;;;;;1.77;83.59;99707.69;5033342;28;19913;-89
2022/12/24 07:03:17;;;;;;;;;;;;;;;1.84;84.18;99701.78;5035102;28;19939;-89
2022/12/24 07:05:42;;;;;;;;;;;;;;;2.33;83.82;99691.41;5034825;28;19975;-91
2022/12/24 07:08:08;;;;;;;;;;;;;;;2.47;83.31;99695.16;5033954;28;19913;-91
2022/12/24 07:10:33;;;;;;;;;;;;;;;2.77;81.49;99693.03;5034458;28;19963;-92
2022/12/24 07:12:58;;;;;;;;;;;;;;;3.08;81.89;99681.38;5036585;28;19913;-92
2022/12/24 07:15:24;;;;;;;;;;;;;;;2.76;81.95;99691.28;5038691;28;20389;-93
2022/12/24 07:17:49;;;;;;;;;;;;;;;3.04;81.67;99685.66;5038135;28;19914;-92
2022/12/24 07:20:14;;;;;;;;;;;;;;;3.30;81.00;99695.59;5029633;28;19920;-93
2022/12/24 07:22:40;;;;;;;;;;;;;;;3.38;81.04;99688.78;5033451;28;19936;-92
2022/12/24 07:25:05;;;;;;;;;;;;;;;3.61;80.84;99693.41;5032665;28;19920;-92
2022/12/24 07:27:32;;;;;;;;;;;;;;;3.81;79.59;99690.19;5034114;28;19913;-91
2022/12/24 07:29:57;;;;;;;;;;;;;;;4.15;79.10;99701.00;5036109;28;20007;-92
2022/12/24 07:32:23;;;;;;;;;;;;;;;4.19;79.50;99701.06;5035647;28;20398;-91
2022/12/24 07:34:48;;;;;;;;;;;;;;;4.07;79.27;99696.56;5035753;28;19919;-91
2022/12/24 07:37:13;;;;;;;;;;;;;;;4.15;79.13;99706.25;5034615;28;19917;-92
2022/12/24 07:39:40;;;;;;;;;;;;;;;4.57;78.34;99702.31;5036287;28;19909;-91
2022/12/24 07:45:08;;;;;;;;;;;;;;;4.43;77.63;99704.78;5037328;28;19932;-91
2022/12/24 07:47:34;;;;;;;;;;;;;;;4.71;77.02;99716.41;5036461;28;20359;-92
2022/12/24 07:49:59;;;;;;;;;;;;;;;4.68;77.32;99702.41;5036260;28;20287;-89
2022/12/24 07:52:24;;;;;;;;;;;;;;;4.83;76.76;99711.28;5034717;28;19972;-92
2022/12/24 07:54:50;;;;;;;;;;;;;;;5.01;77.45;99714.91;5036019;28;19924;-93
2022/12/24 07:57:15;;;;;;;;;;;;;;;5.33;76.81;99724.69;5036670;28;19986;-96
2022/12/24 07:59:41;;;;;;;;;;;;;;;5.41;76.66;99723.03;5035672;28;19915;-94
2022/12/24 08:02:09;;;;;;;;;;;;;;;5.51;75.97;99726.56;5033357;28;19928;-89
2022/12/24 08:04:35;;;;;;;;;;;;;;;5.61;75.12;99722.25;5033380;28;19920;-88
2022/12/24 08:07:01;;;;;;;;;;;;;;;5.73;75.05;99719.69;5033049;28;19921;-93
2022/12/24 08:09:26;;;;;;;;;;;;;;;5.84;75.78;99722.38;5034326;28;20000;-90
2022/12/24 08:11:51;;;;;;;;;;;;;;;6.07;75.05;99726.00;5032075;28;20020;-84
2022/12/24 08:14:17;;;;;;;;;;;;;;;5.99;75.48;99727.69;5032254;28;19917;-94
2022/12/24 08:16:42;;;;;;;;;;;;;;;6.25;75.52;99735.66;5032517;28;19913;-94
2022/12/24 08:19:07;;;;;;;;;;;;;;;6.19;75.40;99743.50;5032350;28;19913;-93
2022/12/24 08:21:33;;;;;;;;;;;;;;;6.34;74.17;99750.53;5033454;28;19913;-93
2022/12/24 08:23:58;;;;;;;;;;;;;;;6.31;74.46;99747.91;5034338;28;20337;-95
2022/12/24 08:26:23;;;;;;;;;;;;;;;6.25;74.57;99740.03;5033928;28;19956;-93
2022/12/24 08:28:48;;;;;;;;;;;;;;;6.35;74.99;99748.78;5032644;28;19913;-92
2022/12/24 08:34:16;;;;;;;;;;;;;;;6.33;74.59;99746.16;5033808;28;19952;-91
2022/12/24 08:36:42;;;;;;;;;;;;;;;6.22;75.04;99748.75;5029008;28;19956;-93
2022/12/24 08:39:40;;;;;;;;;;;;;;;6.35;75.43;99746.16;5011777;28;20349;-92
2022/12/24 08:42:05;;;;;;;;;;;;;;;6.50;75.59;99737.47;5009373;28;20421;-95
2022/12/24 08:44:31;;;;;;;;;;;;;;;6.65;74.12;99741.88;5019694;28;19917;-91
2022/12/24 08:46:56;;;;;;;;;;;;;;;6.84;74.70;99732.28;4993179;28;19956;-88
2022/12/24 08:49:21;;;;;;;;;;;;;;;6.87;74.69;99724.44;5013888;28;19949;-89
2022/12/24 08:51:47;;;;;;;;;;;;;;;6.79;73.69;99727.03;5008748;28;19909;-89
2022/12/24 08:54:13;;;;;;;;;;;;;;;7.04;73.83;99724.44;5025919;28;19913;-89
2022/12/24 08:56:38;;;;;;;;;;;;;;;7.04;73.65;99709.56;5014640;28;19964;-89
2022/12/24 08:59:03;;;;;;;;;;;;;;;7.10;73.09;99709.56;5007956;28;20004;-88
2022/12/24 09:01:30;;;;;;;;;;;;;;;7.08;73.96;99711.31;5009373;28;20269;-89
2022/12/24 09:03:55;;;;;;;;;;;;;;;7.09;73.33;99707.81;5007750;28;19972;-88
2022/12/24 09:06:22;;;;;;;;;;;;;;;7.27;71.98;99706.06;5003965;28;19917;-89
2022/12/24 09:08:47;;;;;;;;;;;;;;;7.28;71.87;99716.53;5007914;28;19956;-95
2022/12/24 09:11:14;;;;;;;;;;;;;;;7.36;70.84;99716.53;4994632;28;19960;-94
2022/12/24 09:13:40;;;;;;;;;;;;;;;7.17;71.20;99715.69;5012336;28;20012;-93
2022/12/24 09:19:08;;;;;;;;;;;;;;;7.21;70.01;99709.53;5014003;28;19915;-94
2022/12/24 09:21:33;;;;;;;;;;;;;;;7.52;69.01;99707.75;5013346;28;19913;-90
2022/12/24 09:24:00;;;;;;;;;;;;;;;7.45;69.02;99710.41;5013362;28;19913;-93
2022/12/24 09:26:25;;;;;;;;;;;;;;;7.61;69.32;99706.84;5012962;28;20000;-93
2022/12/24 09:28:51;;;;;;;;;;;;;;;7.77;67.53;99707.69;5011256;28;20393;-91
2022/12/24 09:31:17;;;;;;;;;;;;;;;7.73;65.81;99703.31;5011524;28;20273;-91
2022/12/24 09:36:45;;;;;;;;;;;;;;;8.01;64.13;99697.97;5009380;28;20382;-92
2022/12/24 09:39:10;;;;;;;;;;;;;;;8.10;63.90;99692.66;5008363;28;20024;-91
2022/12/24 09:42:05;;;;;;;;;;;;;;;8.35;63.51;99690.75;5013216;28;19913;-94
2022/12/24 09:44:30;;;;;;;;;;;;;;;8.53;63.35;99694.22;5002285;28;19918;-92
2022/12/24 09:46:58;;;;;;;;;;;;;;;8.72;62.29;99677.41;4999829;28;20391;-93
2022/12/24 09:49:25;;;;;;;;;;;;;;;8.93;61.14;99667.59;4991690;28;19917;-95
2022/12/24 09:54:57;;;;;;;;;;;;;;;8.97;64.46;99666.66;4993071;28;19917;-89
2022/12/24 09:57:26;;;;;;;;;;;;;;;8.99;64.86;99662.28;5003610;28;19928;-89
2022/12/24 09:59:52;;;;;;;;;;;;;;;9.08;63.86;99671.84;5012458;28;19922;-89
2022/12/24 10:02:18;;;;;;;;;;;;;;;9.28;62.92;99667.28;5012717;28;19914;-89
2022/12/24 10:04:44;;;;;;;;;;;;;;;9.11;63.17;99659.53;5012619;28;19914;-89
2022/12/24 10:07:28;;;;;;;;;;;;;;;9.47;61.42;99653.91;5012595;28;19968;-89
2022/12/24 10:09:53;;;;;;;;;;;;;;;9.43;61.52;99646.94;5012886;28;19913;-91
2022/12/24 10:12:37;;;;;;;;;;;;;;;9.54;61.76;99652.94;5013074;28;19920;-92
2022/12/24 10:15:14;;;;;;;;;;;;;;;9.50;62.14;99645.97;5097882;22;19902;-94
2022/12/24 10:17:51;;;;;;;;;;;;;;;9.32;63.39;99645.28;4989306;28;19934;-93
2022/12/24 10:20:44;;;;;;;;;;;;;;;9.56;62.85;99639.75;5008666;28;19914;-91
2022/12/24 10:23:16;;;;;;;;;;;;;;;9.71;62.01;99644.84;4991943;28;19922;-91
2022/12/24 10:25:42;;;;;;;;;;;;;;;9.80;61.94;99643.84;4991202;28;19914;-93
2022/12/24 10:28:17;;;;;;;;;;;;;;;10.24;61.39;99631.84;4990496;28;19921;-90
2022/12/24 10:34:22;;;;;;;;;;;;;;;10.38;57.75;99624.63;4983100;28;19917;-95
2022/12/24 10:37:09;;;;;;;;;;;;;;;10.25;58.09;99627.44;4990756;28;19913;-96
2022/12/24 10:42:41;;;;;;;;;;;;;;;10.49;57.26;99626.25;4993537;28;20406;-94
2022/12/24 10:45:09;;;;;;;;;;;;;;;10.72;57.51;99620.56;4991898;28;19920;-91
2022/12/24 10:47:37;;;;;;;;;;;;;;;10.61;57.92;99614.59;4996655;28;19914;-92
2022/12/24 10:50:04;;;;;;;;;;;;;;;10.88;57.48;99623.81;4996607;28;19921;-94
2022/12/24 10:52:32;;;;;;;;;;;;;;;10.89;56.80;99615.88;4995489;28;19953;-92
2022/12/24 10:55:16;;;;;;;;;;;;;;;10.73;56.89;99620.53;4996753;28;19914;-92
2022/12/24 10:57:42;;;;;;;;;;;;;;;10.70;55.09;99617.09;4996169;28;19918;-89
2022/12/24 11:00:17;;;;;;;;;;;;;;;10.78;56.12;99623.09;4996315;28;19914;-89
2022/12/24 11:02:43;;;;;;;;;;;;;;;10.84;57.38;99619.50;4996257;28;20368;-91
2022/12/24 11:05:26;;;;;;;;;;;;;;;10.94;57.02;99615.81;4992841;28;19914;-90
2022/12/24 11:11:03;;;;;;;;;;;;;;;11.21;57.11;99618.81;4996146;28;19955;-93
2022/12/24 11:13:30;;;;;;;;;;;;;;;11.32;56.70;99616.84;4995544;28;20396;-90
2022/12/24 11:16:04;;;;;;;;;;;;;;;11.33;56.21;99612.44;4993859;28;19921;-91
2022/12/24 11:18:30;;;;;;;;;;;;;;;11.43;56.93;99619.28;4995721;28;19913;-91
2022/12/24 11:20:58;;;;;;;;;;;;;;;11.40;56.72;99612.31;4981838;28;19925;-90
2022/12/24 11:23:24;;;;;;;;;;;;;;;11.41;55.91;99606.09;4991156;28;19920;-88
2022/12/24 11:25:49;;;;;;;;;;;;;;;11.45;56.39;99599.00;5005219;28;19922;-90
2022/12/24 11:28:21;;;;;;;;;;;;;;;11.71;55.59;99602.88;4992483;28;19914;-91
2022/12/24 11:30:58;;;;;;;;;;;;;;;11.83;55.68;99602.59;4995464;28;19921;-89
2022/12/24 11:36:28;;;;;;;;;;;;;;;11.69;54.24;99581.75;4994125;28;19916;-89
2022/12/24 11:38:55;;;;;;;;;;;;;;;11.65;54.82;99588.03;4995440;28;19945;-89
2022/12/24 11:41:21;;;;;;;;;;;;;;;11.60;54.03;99584.59;4993763;28;19914;-93
2022/12/24 11:43:48;;;;;;;;;;;;;;;11.69;54.58;99580.91;5010140;28;19921;-92
2022/12/24 11:46:35;;;;;;;;;;;;;;;11.79;54.23;99577.16;4995261;28;19921;-90
2022/12/24 11:49:06;;;;;;;;;;;;;;;11.67;54.97;99574.78;4990069;28;19918;-90
2022/12/24 11:51:31;;;;;;;;;;;;;;;11.37;56.16;99578.03;4974523;28;20380;-90
2022/12/24 11:54:15;;;;;;;;;;;;;;;11.27;56.51;99579.09;4979806;28;19960;-92
2022/12/24 11:56:46;;;;;;;;;;;;;;;11.52;56.42;99575.97;4994816;28;20004;-90
2022/12/24 11:59:25;;;;;;;;;;;;;;;11.49;55.80;99578.66;4995201;28;19961;-92
2022/12/24 12:01:57;;;;;;;;;;;;;;;11.62;55.37;99580.16;4994686;28;20368;-89
2022/12/24 12:04:31;;;;;;;;;;;;;;;11.57;55.15;99576.72;4995337;28;19914;-90
2022/12/24 12:10:03;;;;;;;;;;;;;;;11.42;55.68;99578.78;4994935;28;19968;-89
2022/12/24 12:12:30;;;;;;;;;;;;;;;11.47;55.91;99581.34;4991575;28;19914;-89
2022/12/24 12:15:05;;;;;;;;;;;;;;;11.41;56.53;99584.09;4990568;28;19918;-89
2022/12/24 12:17:46;;;;;;;;;;;;;;;11.42;56.31;99580.56;4988966;28;19918;-90
2022/12/24 12:20:11;;;;;;;;;;;;;;;11.57;55.99;99576.72;4990294;28;19917;-87
2022/12/24 12:25:59;;;;;;;;;;;;;;;11.72;56.20;99565.84;4993285;28;19917;-92
2022/12/24 12:28:29;;;;;;;;;;;;;;;12.02;56.10;99565.22;4984434;28;19914;-91
2022/12/24 12:40:10;;;;;;;;;;;;;;;12.15;55.07;99572.84;4988710;28;20295;-91
2022/12/24 12:45:46;;;;;;;;;;;;;;;12.25;55.06;99564.69;4995018;28;20018;-95
2022/12/24 12:48:30;;;;;;;;;;;;;;;11.92;56.09;99573.34;5010862;28;20392;-96
2022/12/24 12:50:55;;;;;;;;;;;;;;;12.32;55.23;99566.28;4994146;28;19967;-95
2022/12/24 12:53:31;;;;;;;;;;;;;;;12.35;55.19;99574.13;4994161;28;19992;-94
2022/12/24 12:56:16;;;;;;;;;;;;;;;12.18;55.39;99572.75;4993229;28;19921;-93
2022/12/24 12:58:57;;;;;;;;;;;;;;;12.09;55.67;99572.97;4992853;28;19920;-94
2022/12/24 13:01:55;;;;;;;;;;;;;;;12.02;56.08;99578.44;4992986;28;19917;-93
2022/12/24 13:04:23;;;;;;;;;;;;;;;12.23;55.72;99574.44;4969832;28;20388;-94
2022/12/24 13:07:07;;;;;;;;;;;;;;;12.35;54.85;99571.50;4996695;28;20012;-95
2022/12/24 13:09:44;;;;;;;;;;;;;;;12.29;55.27;99567.22;4996212;28;19972;-96
2022/12/24 13:12:30;;;;;;;;;;;;;;;12.03;56.11;99580.19;4998847;28;20004;-96
2022/12/24 13:18:17;;;;;;;;;;;;;;;12.01;55.77;99580.22;4982888;28;19924;-96
2022/12/24 13:20:47;;;;;;;;;;;;;;;12.02;54.52;99584.63;4991841;28;19917;-96
2022/12/24 13:23:13;;;;;;;;;;;;;;;11.93;55.58;99577.75;5009093;28;19914;-96
2022/12/24 13:29:26;;;;;;;;;;;;;;;11.65;56.02;99591.53;4974781;28;20047;-95
2022/12/24 13:31:52;;;;;;;;;;;;;;;11.70;55.48;99593.22;4974998;28;19914;-95
2022/12/24 13:37:20;;;;;;;;;;;;;;;11.71;55.75;99613.44;4999510;28;19916;-93
2022/12/24 13:43:04;;;;;;;;;;;;;;;11.63;57.09;99617.13;4998670;28;19917;-95
2022/12/24 13:45:32;;;;;;;;;;;;;;;11.81;57.27;99615.84;4994775;28;20383;-93
2022/12/24 13:48:10;;;;;;;;;;;;;;;11.85;56.52;99613.13;4994454;28;19922;-94
2022/12/24 13:50:37;;;;;;;;;;;;;;;11.92;56.32;99615.66;4993273;28;19914;-94
2022/12/24 13:53:03;;;;;;;;;;;;;;;11.87;56.80;99606.94;4995171;28;19914;-94
2022/12/24 13:55:29;;;;;;;;;;;;;;;11.80;57.51;99608.84;4993582;28;19924;-95
2022/12/24 13:57:59;;;;;;;;;;;;;;;11.77;58.23;99608.91;4996831;28;19961;-95
2022/12/24 14:00:50;;;;;;;;;;;;;;;11.74;57.81;99605.44;4994457;28;19913;-94
2022/12/24 14:06:26;;;;;;;;;;;;;;;11.67;58.82;99603.84;4993177;28;20032;-92
2022/12/24 14:08:54;;;;;;;;;;;;;;;11.74;58.27;99608.97;5009276;28;19937;-94
2022/12/24 14:11:21;;;;;;;;;;;;;;;11.79;57.72;99612.38;4993031;28;19918;-93
2022/12/24 14:13:46;;;;;;;;;;;;;;;11.72;58.30;99607.25;4994523;28;19980;-95
2022/12/24 14:16:17;;;;;;;;;;;;;;;11.41;59.51;99607.88;4993376;28;20286;-96
2022/12/24 14:18:44;;;;;;;;;;;;;;;11.51;59.45;99611.19;4993276;28;19913;-96
2022/12/24 14:21:15;;;;;;;;;;;;;;;11.37;60.52;99611.47;4996245;28;19957;-95
2022/12/24 14:23:58;;;;;;;;;;;;;;;11.35;59.77;99613.28;4998117;28;19914;-95
2022/12/24 14:26:27;;;;;;;;;;;;;;;11.33;59.94;99615.94;4997974;28;19914;-90
2022/12/24 14:28:55;;;;;;;;;;;;;;;11.25;60.10;99617.88;4996882;28;20000;-90
2022/12/24 14:31:21;;;;;;;;;;;;;;;11.27;60.01;99614.28;4997277;28;19917;-90
2022/12/24 14:33:52;;;;;;;;;;;;;;;11.22;59.84;99608.25;4999393;28;19913;-95
2022/12/24 14:36:22;;;;;;;;;;;;;;;11.19;60.07;99612.72;4999913;28;20013;-96
2022/12/24 14:38:50;;;;;;;;;;;;;;;11.22;59.55;99610.88;5001736;28;19917;-95
2022/12/24 14:41:19;;;;;;;;;;;;;;;11.09;60.12;99612.88;5000718;28;19914;-96
2022/12/24 14:43:44;;;;;;;;;;;;;;;11.13;60.44;99611.06;5001750;28;19909;-96
2022/12/24 14:49:19;;;;;;;;;;;;;;;10.93;60.78;99614.91;5003122;28;19932;-96
2022/12/24 14:52:04;;;;;;;;;;;;;;;10.85;61.15;99619.47;5004735;28;19914;-96
2022/12/24 14:54:32;;;;;;;;;;;;;;;10.92;61.43;99614.94;5003193;28;19917;-96
2022/12/24 15:00:02;;;;;;;;;;;;;;;10.53;62.77;99620.00;5007690;28;19960;-96
2022/12/24 15:02:47;;;;;;;;;;;;;;;10.41;63.23;99626.34;5001039;28;19913;-95